createdAt,value
2022-11-12T00:00:44.198Z,98.55
2022-11-12T00:06:05.914Z,98.72
2022-11-12T00:11:27.596Z,98.43
2022-11-12T00:16:49.314Z,100.00
2022-11-12T00:22:11.086Z,99.00
2022-11-12T00:27:33.666Z,98.63
2022-11-12T00:32:55.338Z,98.98
2022-11-12T00:38:17.074Z,98.63
2022-11-12T00:43:38.771Z,98.20
2022-11-12T00:49:00.514Z,97.93
2022-11-12T00:54:22.221Z,98.33
2022-11-12T00:59:43.914Z,99.19
2022-11-12T01:05:05.783Z,99.35
2022-11-12T01:10:27.611Z,98.11
2022-11-12T01:15:49.344Z,97.98
2022-11-12T01:21:11.351Z,97.85
2022-11-12T01:26:33.119Z,97.94
2022-11-12T01:31:54.857Z,98.45
2022-11-12T01:37:16.535Z,99.79
2022-11-12T01:42:39.114Z,98.76
2022-11-12T01:48:01.441Z,98.77
2022-11-12T01:53:27.711Z,97.22
2022-11-12T01:58:53.850Z,97.53
2022-11-12T02:04:16.333Z,97.06
2022-11-12T02:09:38.176Z,97.14
2022-11-12T02:15:00.090Z,96.64
2022-11-12T02:20:21.855Z,96.90
2022-11-12T02:25:43.563Z,95.96
2022-11-12T02:31:05.356Z,96.94
2022-11-12T02:36:27.989Z,98.00
2022-11-12T02:41:49.790Z,97.84
2022-11-12T02:47:11.457Z,95.27
2022-11-12T02:52:33.175Z,95.98
2022-11-12T02:57:58.513Z,96.34
2022-11-12T03:03:20.235Z,96.48
2022-11-12T03:08:41.898Z,95.25
2022-11-12T03:14:03.616Z,94.64
2022-11-12T03:19:25.310Z,94.15
2022-11-12T03:24:47.061Z,93.40
2022-11-12T03:30:09.031Z,93.34
2022-11-12T03:35:31.977Z,93.02
2022-11-12T03:40:53.652Z,92.97
2022-11-12T03:46:15.327Z,93.31
2022-11-12T03:51:36.998Z,93.06
2022-11-12T03:56:58.672Z,94.27
2022-11-12T04:02:20.339Z,94.02
2022-11-12T04:08:00.515Z,94.65
2022-11-12T04:13:28.098Z,93.24
2022-11-12T04:19:10.147Z,92.30
2022-11-12T04:24:52.880Z,91.92
2022-11-12T04:30:18.632Z,91.66
2022-11-12T04:35:40.317Z,92.46
2022-11-12T04:41:20.625Z,92.47
2022-11-12T04:46:42.339Z,92.00
2022-11-12T04:52:07.234Z,91.40
2022-11-12T04:57:29.077Z,91.63
2022-11-12T05:02:50.793Z,92.57
2022-11-12T05:08:12.487Z,91.78
2022-11-12T05:13:34.181Z,91.67
2022-11-12T05:18:55.872Z,91.42
2022-11-12T05:24:40.117Z,91.91
2022-11-12T05:29:59.279Z,93.05
2022-11-12T05:35:21.002Z,92.64
2022-11-12T05:40:45.156Z,92.91
2022-11-12T05:46:07.039Z,92.79
2022-11-12T05:51:28.762Z,93.78
2022-11-12T05:56:51.838Z,93.66
2022-11-12T06:02:13.582Z,93.08
2022-11-12T06:07:35.307Z,92.77
2022-11-12T06:12:57.179Z,92.71
2022-11-12T06:18:18.879Z,92.71
2022-11-12T06:23:40.543Z,92.90
2022-11-12T06:29:02.226Z,92.85
2022-11-12T06:34:23.913Z,92.80
2022-11-12T06:39:45.582Z,93.27
2022-11-12T06:45:07.877Z,93.08
2022-11-12T06:50:29.608Z,92.26
2022-11-12T06:55:51.965Z,94.42
2022-11-12T07:01:15.427Z,94.35
2022-11-12T07:06:37.258Z,94.32
2022-11-12T07:11:59.068Z,94.55
2022-11-12T07:17:21.958Z,93.30
2022-11-12T07:22:43.698Z,94.32
2022-11-12T07:28:05.370Z,93.34
2022-11-12T07:33:28.822Z,91.85
2022-11-12T07:38:53.213Z,92.42
2022-11-12T07:44:14.870Z,92.64
2022-11-12T07:49:36.543Z,92.29
2022-11-12T07:54:58.189Z,92.46
2022-11-12T08:00:19.988Z,92.55
2022-11-12T08:05:41.970Z,93.14
2022-11-12T08:11:03.767Z,93.07
2022-11-12T08:16:25.564Z,92.91
2022-11-12T08:21:47.295Z,93.62
2022-11-12T08:27:09.026Z,93.80
2022-11-12T08:32:30.980Z,93.30
2022-11-12T08:37:58.440Z,94.08
2022-11-12T08:43:20.145Z,94.37
2022-11-12T08:48:41.873Z,93.75
2022-11-12T08:54:03.649Z,93.69
2022-11-12T08:59:25.428Z,93.36
2022-11-12T09:04:47.101Z,93.75
2022-11-12T09:10:08.886Z,93.22
2022-11-12T09:15:36.838Z,93.83
2022-11-12T09:21:08.532Z,94.13
2022-11-12T09:26:30.207Z,94.07
2022-11-12T09:31:51.860Z,93.18
2022-11-12T09:37:13.619Z,92.97
2022-11-12T09:42:36.944Z,92.88
2022-11-12T09:48:05.459Z,93.52
2022-11-12T09:54:08.782Z,93.59
2022-11-12T09:59:33.269Z,93.54
2022-11-12T10:05:06.753Z,92.68
2022-11-12T10:10:32.656Z,92.92
2022-11-12T10:16:15.791Z,92.44
2022-11-12T10:21:57.981Z,91.80
2022-11-12T10:27:22.643Z,91.67
2022-11-12T10:32:46.198Z,91.39
2022-11-12T10:38:14.748Z,91.15
2022-11-12T10:43:36.650Z,90.69
2022-11-12T10:49:19.928Z,90.63
2022-11-12T10:54:41.834Z,90.88
2022-11-12T11:00:09.472Z,90.31
2022-11-12T11:05:31.146Z,89.14
2022-11-12T11:11:14.000Z,88.99
2022-11-12T11:16:51.260Z,88.81
2022-11-12T11:22:42.633Z,88.13
2022-11-12T11:28:19.054Z,88.44
2022-11-12T11:33:55.009Z,87.34
2022-11-12T11:39:23.162Z,86.56
2022-11-12T11:45:04.863Z,86.95
2022-11-12T11:50:29.162Z,86.55
2022-11-12T11:56:03.733Z,85.80
2022-11-12T12:01:34.810Z,85.40
2022-11-12T12:07:15.245Z,84.58
2022-11-12T12:12:47.148Z,83.88
2022-11-12T12:18:39.302Z,83.02
2022-11-12T12:24:20.511Z,82.59
2022-11-12T12:30:06.864Z,79.11
2022-11-12T12:35:34.568Z,78.45
2022-11-12T12:41:27.884Z,78.59
2022-11-12T12:46:56.739Z,78.79
2022-11-12T12:52:18.523Z,76.25
2022-11-12T12:57:40.664Z,77.46
2022-11-12T13:03:02.496Z,76.83
2022-11-12T13:08:26.307Z,76.92
2022-11-12T13:13:48.228Z,77.11
2022-11-12T13:19:09.944Z,76.46
2022-11-12T13:25:04.473Z,77.12
2022-11-12T13:30:26.083Z,76.20
2022-11-12T13:35:47.812Z,75.63
2022-11-12T13:41:19.429Z,75.50
2022-11-12T13:46:41.511Z,75.97
2022-11-12T13:52:05.685Z,75.33
2022-11-12T13:57:30.732Z,76.02
2022-11-12T14:03:05.282Z,77.49
2022-11-12T14:08:40.324Z,77.44
2022-11-12T14:14:33.890Z,77.17
2022-11-12T14:20:12.769Z,77.62
2022-11-12T14:25:34.870Z,78.15
2022-11-12T14:30:58.889Z,79.42
2022-11-12T14:36:21.170Z,80.71
2022-11-12T14:41:45.951Z,81.56
2022-11-12T14:47:09.516Z,82.40
2022-11-12T14:52:35.314Z,83.93
2022-11-12T14:57:59.212Z,84.91
2022-11-12T15:03:24.454Z,85.37
2022-11-12T15:08:56.780Z,86.46
2022-11-12T15:14:26.685Z,87.11
2022-11-12T15:19:48.400Z,87.87
2022-11-12T15:25:30.962Z,88.67
2022-11-12T15:31:07.625Z,89.08
2022-11-12T15:36:29.395Z,89.41
2022-11-12T15:42:23.447Z,90.09
2022-11-12T15:47:45.512Z,90.49
2022-11-12T15:53:07.349Z,90.68
2022-11-12T15:58:34.173Z,90.87
2022-11-12T16:03:55.831Z,91.81
2022-11-12T16:09:17.562Z,91.65
2022-11-12T16:14:40.186Z,92.16
2022-11-12T16:20:02.004Z,92.63
2022-11-12T16:25:28.213Z,92.98
2022-11-12T16:30:50.840Z,93.58
2022-11-12T16:36:16.035Z,94.25
2022-11-12T16:41:37.730Z,94.64
2022-11-12T16:47:02.452Z,94.79
2022-11-12T16:52:24.102Z,95.02
2022-11-12T16:57:46.046Z,95.13
2022-11-12T17:03:11.447Z,95.50
2022-11-12T17:08:34.175Z,96.80
2022-11-12T17:13:55.994Z,96.84
2022-11-12T17:19:17.671Z,96.75
2022-11-12T17:24:39.346Z,97.01
2022-11-12T17:30:01.212Z,97.23
2022-11-12T17:35:22.930Z,97.28
2022-11-12T17:40:44.680Z,97.89
2022-11-12T17:46:07.983Z,97.94
2022-11-12T17:51:29.724Z,97.70
2022-11-12T17:56:51.419Z,98.37
2022-11-12T18:02:13.173Z,98.29
2022-11-12T18:07:34.852Z,99.10
2022-11-12T18:12:57.671Z,99.56
2022-11-12T18:18:19.722Z,99.21
2022-11-12T18:23:43.728Z,99.33
2022-11-12T18:29:05.694Z,99.85
2022-11-12T18:34:27.466Z,99.73
2022-11-12T18:39:49.148Z,99.54
2022-11-12T18:45:10.930Z,99.30
2022-11-12T18:50:33.723Z,99.71
2022-11-12T18:55:59.848Z,99.53
2022-11-12T19:01:23.499Z,99.54
2022-11-12T19:06:45.309Z,99.84
2022-11-12T19:12:07.044Z,99.99
2022-11-12T19:17:31.163Z,100.00
2022-11-12T19:22:54.107Z,100.00
2022-11-12T19:28:15.802Z,100.00
2022-11-12T19:33:37.521Z,100.00
2022-11-12T19:39:02.365Z,100.00
2022-11-12T19:44:24.077Z,100.00
2022-11-12T19:49:45.745Z,100.00
2022-11-12T19:55:07.808Z,100.00
2022-11-12T20:00:29.538Z,100.00
2022-11-12T20:05:54.347Z,100.00
2022-11-12T20:11:16.880Z,100.00
2022-11-12T20:16:39.384Z,99.62
2022-11-12T20:22:01.095Z,98.99
2022-11-12T20:27:23.115Z,98.06
2022-11-12T20:32:44.955Z,98.69
2022-11-12T20:38:06.676Z,98.37
2022-11-12T20:43:31.884Z,98.08
2022-11-12T20:48:54.753Z,98.00
2022-11-12T20:54:20.730Z,97.65
2022-11-12T20:59:43.230Z,97.64
2022-11-12T21:05:05.824Z,97.89
2022-11-12T21:10:27.591Z,97.69
2022-11-12T21:15:50.146Z,98.54
2022-11-12T21:21:14.317Z,98.41
2022-11-12T21:26:36.399Z,99.04
2022-11-12T21:31:58.184Z,98.42
2022-11-12T21:37:20.000Z,96.99
2022-11-12T21:42:42.530Z,96.49
2022-11-12T21:48:05.218Z,96.43
2022-11-12T21:53:27.234Z,96.99
2022-11-12T21:58:49.010Z,97.70
2022-11-12T22:04:15.487Z,97.18
2022-11-12T22:09:39.761Z,96.27
2022-11-12T22:15:01.554Z,97.02
2022-11-12T22:20:23.466Z,96.57
2022-11-12T22:25:45.173Z,96.11
2022-11-12T22:31:10.237Z,95.82
2022-11-12T22:36:34.690Z,95.64
2022-11-12T22:41:56.379Z,95.61
2022-11-12T22:47:18.066Z,95.78
2022-11-12T22:52:40.152Z,96.13
2022-11-12T22:58:02.230Z,96.45
2022-11-12T23:03:23.989Z,96.19
2022-11-12T23:08:46.009Z,97.03
2022-11-12T23:14:07.689Z,96.57
2022-11-12T23:19:29.375Z,95.87
2022-11-12T23:24:51.070Z,96.15
2022-11-12T23:30:13.010Z,97.09
2022-11-12T23:35:34.758Z,96.77
2022-11-12T23:40:56.611Z,95.44
2022-11-12T23:46:18.939Z,95.19
2022-11-12T23:51:40.625Z,95.20
2022-11-12T23:57:02.330Z,94.30
